createdAt,value
2018-12-10T00:02:32.221Z,7.40
2018-12-10T00:07:25.804Z,7.40
2018-12-10T00:12:18.874Z,7.50
2018-12-10T00:17:11.957Z,7.50
2018-12-10T00:22:05.187Z,7.50
2018-12-10T00:26:58.699Z,7.60
2018-12-10T00:31:52.590Z,7.60
2018-12-10T00:36:45.798Z,7.60
2018-12-10T00:41:38.734Z,7.50
2018-12-10T00:46:32.903Z,7.50
2018-12-10T00:51:27.142Z,7.60
2018-12-10T00:56:20.811Z,7.60
2018-12-10T01:01:13.901Z,7.60
2018-12-10T01:06:07.604Z,7.70
2018-12-10T01:11:00.346Z,7.60
2018-12-10T01:15:53.811Z,7.50
2018-12-10T01:20:48.007Z,7.40
2018-12-10T01:25:43.291Z,7.30
2018-12-10T01:30:38.023Z,7.30
2018-12-10T01:35:33.310Z,7.30
2018-12-10T01:40:26.228Z,7.30
2018-12-10T01:45:19.504Z,7.20
2018-12-10T01:50:12.580Z,7.30
2018-12-10T01:55:06.875Z,7.30
2018-12-10T02:00:00.764Z,7.20
2018-12-10T02:04:54.091Z,7.30
2018-12-10T02:09:47.223Z,7.30
2018-12-10T02:14:40.161Z,7.30
2018-12-10T02:19:33.193Z,7.30
2018-12-10T02:24:26.223Z,7.30
2018-12-10T02:29:19.465Z,7.30
2018-12-10T02:34:12.715Z,7.30
2018-12-10T02:39:07.176Z,7.30
2018-12-10T02:44:08.105Z,7.30
2018-12-10T02:49:02.461Z,7.30
2018-12-10T02:53:55.601Z,7.20
2018-12-10T02:58:48.978Z,7.30
2018-12-10T03:03:56.897Z,7.30
2018-12-10T03:08:50.073Z,7.30
2018-12-10T03:13:45.273Z,7.30
2018-12-10T03:18:40.476Z,7.20
2018-12-10T03:23:33.587Z,7.20
2018-12-10T03:28:26.447Z,7.10
2018-12-10T03:33:19.972Z,6.90
2018-12-10T03:38:14.486Z,6.90
2018-12-10T03:43:09.039Z,6.90
2018-12-10T03:48:04.597Z,6.70
2018-12-10T03:52:58.050Z,6.60
2018-12-10T03:57:51.151Z,6.60
2018-12-10T04:02:44.178Z,6.60
2018-12-10T04:07:37.569Z,6.50
2018-12-10T04:12:31.459Z,6.60
2018-12-10T04:17:24.513Z,6.60
2018-12-10T04:22:21.490Z,6.60
2018-12-10T04:27:14.571Z,6.60
2018-12-10T04:32:08.269Z,6.60
2018-12-10T04:37:01.629Z,6.60
2018-12-10T04:41:54.899Z,6.50
2018-12-10T04:46:48.632Z,6.50
2018-12-10T04:51:41.757Z,6.50
2018-12-10T04:56:35.556Z,6.40
2018-12-10T05:01:28.821Z,6.50
2018-12-10T05:06:21.789Z,6.50
2018-12-10T05:11:15.782Z,6.50
2018-12-10T05:16:11.307Z,6.50
2018-12-10T05:21:04.562Z,6.50
2018-12-10T05:26:00.844Z,6.50
2018-12-10T05:30:57.292Z,6.50
2018-12-10T05:35:50.248Z,6.40
2018-12-10T05:40:44.180Z,6.30
2018-12-10T05:45:38.130Z,6.30
2018-12-10T05:50:31.262Z,6.20
2018-12-10T05:55:24.071Z,6.30
2018-12-10T06:00:17.092Z,6.30
2018-12-10T06:05:11.644Z,6.30
2018-12-10T06:10:06.013Z,6.30
2018-12-10T06:14:59.420Z,6.30
2018-12-10T06:19:54.572Z,6.40
2018-12-10T06:24:49.659Z,6.30
2018-12-10T06:29:43.139Z,6.20
2018-12-10T06:34:36.414Z,6.20
2018-12-10T06:39:29.592Z,6.10
2018-12-10T06:44:22.563Z,6.00
2018-12-10T06:49:15.970Z,6.00
2018-12-10T06:54:08.908Z,5.90
2018-12-10T06:59:02.093Z,5.90
2018-12-10T07:03:55.042Z,6.00
2018-12-10T07:08:49.366Z,6.00
2018-12-10T07:13:42.313Z,6.00
2018-12-10T07:18:38.035Z,6.00
2018-12-10T07:23:33.071Z,6.00
2018-12-10T07:28:27.692Z,6.00
2018-12-10T07:33:21.630Z,6.00
2018-12-10T07:38:14.683Z,5.90
2018-12-10T07:43:08.658Z,5.90
2018-12-10T07:48:02.756Z,5.80
2018-12-10T07:52:56.090Z,5.80
2018-12-10T07:57:49.183Z,5.90
2018-12-10T08:02:42.812Z,6.00
2018-12-10T08:07:36.261Z,6.00
2018-12-10T08:12:30.573Z,6.10
2018-12-10T08:17:23.699Z,6.30
2018-12-10T08:22:17.757Z,6.40
2018-12-10T08:27:11.305Z,6.50
2018-12-10T08:32:05.063Z,6.50
2018-12-10T08:36:58.453Z,6.60
2018-12-10T08:41:54.068Z,6.60
2018-12-10T08:46:48.291Z,6.70
2018-12-10T08:51:41.231Z,6.80
2018-12-10T08:56:35.078Z,6.70
2018-12-10T09:01:30.764Z,6.60
2018-12-10T09:06:24.172Z,6.50
2018-12-10T09:11:17.303Z,6.60
2018-12-10T09:16:11.611Z,6.60
2018-12-10T09:21:05.616Z,6.60
2018-12-10T09:26:00.718Z,6.70
2018-12-10T09:30:53.690Z,6.60
2018-12-10T09:35:47.544Z,6.70
2018-12-10T09:40:40.948Z,6.80
2018-12-10T09:45:34.223Z,6.90
2018-12-10T09:50:27.037Z,7.00
2018-12-10T09:55:21.647Z,8.60
2018-12-10T10:00:14.767Z,11.30
2018-12-10T10:05:12.631Z,10.90
2018-12-10T10:10:06.782Z,9.80
2018-12-10T10:15:01.011Z,8.90
2018-12-10T10:19:54.867Z,8.40
2018-12-10T10:24:50.566Z,8.00
2018-12-10T10:29:44.053Z,8.10
2018-12-10T10:34:37.512Z,8.60
2018-12-10T10:39:30.506Z,10.20
2018-12-10T10:44:27.253Z,10.50
2018-12-10T10:49:20.816Z,12.90
2018-12-10T10:54:14.824Z,15.90
2018-12-10T10:59:07.693Z,18.50
2018-12-10T11:04:00.928Z,21.20
2018-12-10T11:08:53.828Z,22.60
2018-12-10T11:13:47.228Z,23.10
2018-12-10T11:18:40.225Z,23.70
2018-12-10T11:23:36.138Z,23.70
2018-12-10T11:28:31.072Z,19.90
2018-12-10T11:33:24.216Z,15.40
2018-12-10T11:38:17.513Z,12.50
2018-12-10T11:43:11.769Z,10.60
2018-12-10T11:48:07.021Z,8.80
2018-12-10T11:53:00.127Z,7.90
2018-12-10T11:57:53.668Z,7.60
2018-12-10T12:02:48.004Z,7.40
2018-12-10T12:07:43.629Z,7.20
2018-12-10T12:12:36.999Z,7.00
2018-12-10T12:17:30.049Z,6.80
2018-12-10T12:22:26.096Z,6.70
2018-12-10T12:27:19.143Z,6.90
2018-12-10T12:32:13.196Z,7.30
2018-12-10T12:37:06.753Z,8.00
2018-12-10T12:42:00.201Z,8.20
2018-12-10T12:46:55.833Z,8.00
2018-12-10T12:51:49.307Z,7.80
2018-12-10T12:56:43.201Z,7.70
2018-12-10T13:01:38.306Z,7.60
2018-12-10T13:06:32.296Z,7.60
2018-12-10T13:11:25.277Z,7.40
2018-12-10T13:16:18.962Z,7.20
2018-12-10T13:21:12.659Z,6.90
2018-12-10T13:26:05.517Z,6.90
2018-12-10T13:30:58.797Z,7.00
2018-12-10T13:35:52.276Z,7.00
2018-12-10T13:40:45.579Z,6.80
2018-12-10T13:45:39.177Z,6.80
2018-12-10T13:50:33.058Z,7.10
2018-12-10T13:55:28.843Z,7.20
2018-12-10T14:00:22.275Z,7.20
2018-12-10T14:05:15.625Z,7.10
2018-12-10T14:10:09.705Z,7.10
2018-12-10T14:15:02.727Z,7.10
2018-12-10T14:19:57.070Z,7.10
2018-12-10T14:24:51.174Z,7.00
2018-12-10T14:29:44.238Z,6.90
2018-12-10T14:34:37.334Z,6.90
2018-12-10T14:39:31.229Z,6.90
2018-12-10T14:44:26.775Z,6.80
2018-12-10T14:49:19.900Z,6.80
2018-12-10T14:54:12.867Z,6.80
2018-12-10T14:59:06.347Z,6.70
2018-12-10T15:04:00.145Z,6.60
2018-12-10T15:08:53.206Z,6.50
2018-12-10T15:13:46.279Z,6.50
2018-12-10T15:18:40.599Z,6.40
2018-12-10T15:23:34.854Z,6.10
2018-12-10T15:28:28.126Z,5.60
2018-12-10T15:33:21.123Z,5.40
2018-12-10T15:38:14.958Z,5.20
2018-12-10T15:43:08.798Z,5.30
2018-12-10T15:48:04.030Z,5.40
2018-12-10T15:52:57.867Z,5.50
2018-12-10T15:57:52.103Z,5.60
2018-12-10T16:02:45.174Z,5.70
2018-12-10T16:07:38.245Z,5.70
2018-12-10T16:12:32.781Z,5.80
2018-12-10T16:17:25.716Z,5.90
2018-12-10T16:22:20.265Z,6.00
2018-12-10T16:27:14.214Z,6.00
2018-12-10T16:32:07.301Z,5.80
2018-12-10T16:37:00.885Z,5.50
2018-12-10T16:41:54.960Z,5.30
2018-12-10T16:46:48.264Z,5.10
2018-12-10T16:51:41.556Z,5.10
2018-12-10T16:56:35.811Z,5.30
2018-12-10T17:01:32.568Z,5.40
2018-12-10T17:06:26.357Z,5.40
2018-12-10T17:11:20.706Z,5.40
2018-12-10T17:16:13.931Z,5.40
2018-12-10T17:21:06.798Z,5.60
2018-12-10T17:25:59.971Z,5.60
2018-12-10T17:30:53.264Z,5.70
2018-12-10T17:35:46.272Z,5.80
2018-12-10T17:40:40.321Z,6.00
2018-12-10T17:45:33.802Z,6.00
2018-12-10T17:50:28.218Z,6.00
2018-12-10T17:55:22.899Z,6.00
2018-12-10T18:00:16.846Z,5.90
2018-12-10T18:05:10.083Z,5.80
2018-12-10T18:10:03.217Z,5.90
2018-12-10T18:14:57.307Z,5.80
2018-12-10T18:19:51.426Z,5.80
2018-12-10T18:24:44.497Z,5.80
2018-12-10T18:29:37.567Z,5.70
2018-12-10T18:34:30.638Z,5.60
2018-12-10T18:39:24.718Z,5.50
2018-12-10T18:44:19.422Z,5.40
2018-12-10T18:49:12.411Z,5.40
2018-12-10T18:54:12.855Z,5.40
2018-12-10T18:59:29.618Z,5.50
2018-12-10T19:04:23.734Z,5.40
2018-12-10T19:09:16.743Z,5.20
2018-12-10T19:14:12.116Z,5.10
2018-12-10T19:19:05.345Z,5.20
2018-12-10T19:23:58.625Z,5.20
2018-12-10T19:28:52.597Z,5.20
2018-12-10T19:33:45.784Z,5.10
2018-12-10T19:38:38.856Z,5.10
2018-12-10T19:43:34.879Z,5.20
2018-12-10T19:48:28.783Z,5.20
2018-12-10T19:53:21.855Z,5.20
2018-12-10T19:58:14.827Z,5.20
2018-12-10T20:03:09.459Z,5.20
2018-12-10T20:08:05.777Z,5.30
2018-12-10T20:12:59.052Z,5.30
2018-12-10T20:17:52.094Z,5.40
2018-12-10T20:22:45.329Z,5.40
2018-12-10T20:27:38.265Z,5.40
2018-12-10T20:32:31.593Z,5.30
2018-12-10T20:37:24.713Z,5.20
2018-12-10T20:42:17.652Z,5.10
2018-12-10T20:47:11.055Z,5.10
2018-12-10T20:52:04.342Z,5.10
2018-12-10T20:56:57.199Z,5.00
2018-12-10T21:01:50.809Z,5.00
2018-12-10T21:06:44.165Z,5.00
2018-12-10T21:11:37.317Z,5.00
2018-12-10T21:16:30.475Z,5.10
2018-12-10T21:21:25.420Z,5.10
2018-12-10T21:26:19.161Z,5.20
2018-12-10T21:31:12.831Z,5.20
2018-12-10T21:36:05.917Z,5.30
2018-12-10T21:40:59.299Z,5.20
2018-12-10T21:45:52.765Z,5.30
2018-12-10T21:50:49.272Z,5.20
2018-12-10T21:55:43.161Z,5.20
2018-12-10T22:00:37.875Z,5.20
2018-12-10T22:05:37.273Z,5.30
2018-12-10T22:10:31.802Z,5.30
2018-12-10T22:15:26.509Z,5.30
2018-12-10T22:20:20.194Z,5.40
2018-12-10T22:25:15.868Z,5.40
2018-12-10T22:30:09.293Z,5.40
2018-12-10T22:35:06.081Z,5.50
2018-12-10T22:40:01.490Z,5.50
2018-12-10T22:44:54.350Z,5.60
2018-12-10T22:49:47.456Z,5.50
2018-12-10T22:54:40.285Z,5.40
2018-12-10T22:59:37.555Z,5.30
2018-12-10T23:04:30.724Z,5.30
2018-12-10T23:09:24.209Z,5.30
2018-12-10T23:14:17.292Z,5.30
2018-12-10T23:19:10.552Z,5.40
2018-12-10T23:24:05.608Z,5.40
2018-12-10T23:28:59.941Z,5.40
2018-12-10T23:33:52.847Z,5.40
2018-12-10T23:38:47.068Z,5.30
2018-12-10T23:43:41.553Z,5.30
2018-12-10T23:48:34.710Z,5.30
2018-12-10T23:53:27.679Z,5.30
2018-12-10T23:58:20.756Z,5.30
